Greater Binghamton,Edwin A Link field Binghamton US
ICAO: KBGM
IATA: BGM
Category: Medium
Scheduled Services: Yes

Elevation: 1636 ft
TransAlt. 18000 ft.

Airport Communications:
APP/DEP:118.6
ATIS:128.15
CLNC DEL:125.05
CTAF:119.3
GND:121.9
BUFFALO RDO:112.2
TWR:119.3
UNICOM:122.95

KBGM Zoom In..

Runways:

(A) RW 10 length 5001 ft width 150 ft
---- / hdg 98

(B) RW 16 length 7304 ft width 150 ft
ILS 110.30 / hdg 160

(C) RW 28 length 5001 ft width 150 ft
---- / hdg 278

(D) RW 34 length 7304 ft width 150 ft
ILS 110.30 / hdg 340

Location; KBGM
Day. 20 / Time. 09.53 Zulu
* Altimeter: 30.09
* Temperature: -03° c. -26.6°f.
* Wind from: 320° Speed 10 kn with Gusts up to 18 kn.
Dewpoint: -07° c.
Visibility: 10 Statute Miles.
Clouds: Broken 2300 ft.
Clouds: Broken 2900 ft.
Clouds: Overcast 3900 ft.

KBGM 200953Z AUTO 32010G18KT 10SM BKN023 BKN029 OVC039 M03/M07 A3009 RMK AO2 SLP209 T10281067


Wind From 320°
Speed 10 kn.

  YouTube Music Video
 
jpsmedia.com for Web Design  worldairports.se 2018   terms of use